Time;durP1;ratioP1;P1;durP2;ratioP2;P2;SDS_P1;SDS_P2;PMS_P1;PMS_P2;Temp;Humidity;BMP_temperature;BMP_pressure;BME280_temperature;BME280_humidity;BME280_pressure;Samples;Min_cycle;Max_cycle;Signal;HPM_P1;HPM_P2
2023/03/08 00:03:01;;;;;;;0.38;0.30;;;;;;;17.09;42.62;99562.81;20221593;29;20048;-94
2023/03/08 00:13:03;;;;;;;0.30;0.30;;;;;;;14.01;42.38;99126.63;20217835;29;20044;-94
2023/03/08 00:23:08;;;;;;;0.77;0.38;;;;;;;17.20;42.85;99580.47;20199568;29;20156;-89
2023/03/08 00:33:11;;;;;;;0.80;0.33;;;;;;;16.32;42.61;99485.72;20190910;29;20082;-94
2023/03/08 00:43:13;;;;;;;0.20;0.20;;;;;;;16.28;42.39;99425.28;20200240;29;20052;-95
2023/03/08 00:53:15;;;;;;;0.40;0.40;;;;;;;14.09;42.80;99128.53;20198735;29;20053;-94
2023/03/08 01:03:17;;;;;;;0.57;0.57;;;;;;;16.53;42.54;99492.53;20211808;29;20048;-91
2023/03/08 01:13:20;;;;;;;0.40;0.30;;;;;;;14.48;42.29;99171.00;20210613;29;20077;-92
2023/03/08 01:23:22;;;;;;;0.20;0.20;;;;;;;17.15;42.21;99553.22;20196321;29;20075;-93
2023/03/08 01:33:24;;;;;;;0.20;0.20;;;;;;;16.27;42.29;99409.34;20184220;29;20109;-94
2023/03/08 01:43:29;;;;;;;0.55;0.38;;;;;;;15.07;42.27;99201.72;20220783;29;20056;-90
2023/03/08 01:53:33;;;;;;;0.30;0.30;;;;;;;13.15;42.03;98949.72;20186666;29;20140;-93
2023/03/08 02:03:35;;;;;;;0.45;0.40;;;;;;;16.22;42.04;99385.66;20203457;29;20080;-94
2023/03/08 02:13:38;;;;;;;0.38;0.30;;;;;;;17.10;42.01;99509.88;20181448;29;20061;-93
2023/03/08 02:23:40;;;;;;;0.40;0.40;;;;;;;14.61;41.88;99122.38;20206302;29;20056;-92
2023/03/08 02:33:44;;;;;;;0.80;0.40;;;;;;;17.09;41.75;99508.19;20187968;29;20060;-93
2023/03/08 02:43:46;;;;;;;0.90;0.47;;;;;;;13.41;41.85;98956.97;20215112;29;20060;-94
2023/03/08 02:53:50;;;;;;;0.40;0.40;;;;;;;14.77;41.84;99116.28;20202709;29;20053;-94
2023/03/08 03:03:58;;;;;;;0.50;0.50;;;;;;;14.82;41.63;99134.56;20205628;29;20109;-94
2023/03/08 03:14:00;;;;;;;0.63;0.50;;;;;;;14.86;41.66;99149.31;20206883;29;20064;-94
2023/03/08 03:24:08;;;;;;;0.52;0.40;;;;;;;17.04;41.72;99479.13;20203573;29;20076;-95
2023/03/08 03:34:21;;;;;;;0.40;0.40;;;;;;;14.42;41.59;99157.38;20202482;29;20049;-93
2023/03/08 03:44:24;;;;;;;0.73;0.50;;;;;;;13.32;41.36;98917.81;20224503;29;20057;-91
2023/03/08 03:54:26;;;;;;;0.75;0.50;;;;;;;13.53;41.37;98967.44;20211286;29;20049;-92
2023/03/08 04:04:31;;;;;;;;;;;;;;;17.02;41.42;99485.66;20190912;29;20075;-93
2023/03/08 04:14:33;;;;;;;0.55;0.55;;;;;;;13.44;41.43;99004.78;20195432;29;19923;-93
2023/03/08 04:24:35;;;;;;;0.60;0.60;;;;;;;12.70;41.60;98859.81;20279573;29;20056;-94
2023/03/08 04:34:43;;;;;;;0.90;0.57;;;;;;;14.82;41.38;99107.78;20221047;29;20085;-95
2023/03/08 04:44:48;;;;;;;1.55;0.80;;;;;;;14.02;41.25;98994.53;20203419;29;20052;-95
2023/03/08 04:54:54;;;;;;;0.68;0.65;;;;;;;13.49;41.38;98949.03;20213615;29;20053;-93
2023/03/08 05:05:00;;;;;;;1.20;0.73;;;;;;;14.79;41.00;99105.41;20191595;29;20060;-95
2023/03/08 05:15:02;;;;;;;0.85;0.70;;;;;;;16.99;41.20;99433.03;20199511;29;20061;-89
2023/03/08 05:25:04;;;;;;;0.75;0.60;;;;;;;16.97;40.91;99421.59;20151951;29;20108;-94
2023/03/08 05:35:08;;;;;;;1.15;0.95;;;;;;;16.98;41.04;99417.09;20177022;29;20227;-93
2023/03/08 05:45:11;;;;;;;0.68;0.68;;;;;;;16.36;40.97;99301.78;20176836;29;20088;-93
2023/03/08 05:55:15;;;;;;;0.80;0.50;;;;;;;16.82;41.08;99367.66;20188977;29;20526;-93
2023/03/08 06:05:19;;;;;;;1.33;0.82;;;;;;;16.70;41.28;99331.34;20201252;29;20045;-85
2023/03/08 06:15:23;;;;;;;2.25;1.00;;;;;;;16.85;41.20;99356.59;20271324;29;20039;-88
2023/03/08 06:25:25;;;;;;;1.95;0.80;;;;;;;16.95;41.36;99354.56;20289521;29;20036;-89
2023/03/08 06:35:27;;;;;;;1.35;0.70;;;;;;;16.95;41.16;99346.50;20269182;29;20101;-82
2023/03/08 06:45:37;;;;;;;0.70;0.70;;;;;;;16.94;41.27;99355.56;20282760;29;20041;-88
2023/03/08 06:55:39;;;;;;;1.17;0.90;;;;;;;16.96;41.22;99352.69;20288544;29;20044;-89
2023/03/08 07:05:41;;;;;;;0.90;0.80;;;;;;;16.96;41.20;99356.25;20194816;29;20087;-90
2023/03/08 07:15:45;;;;;;;1.17;0.80;;;;;;;16.96;41.27;99341.94;20208294;29;20097;-85
2023/03/08 07:25:47;;;;;;;1.05;0.60;;;;;;;16.96;41.39;99358.06;20186563;29;20056;-91
2023/03/08 07:35:49;;;;;;;0.90;0.80;;;;;;;16.76;41.38;99326.16;20230975;29;20398;-90
2023/03/08 07:45:52;;;;;;;0.82;0.68;;;;;;;16.97;41.52;99343.63;20172061;29;20072;-94
2023/03/08 07:55:53;;;;;;;0.70;0.70;;;;;;;16.97;41.39;99357.06;20221258;29;20057;-90
2023/03/08 08:05:55;;;;;;;0.55;0.50;;;;;;;16.96;41.45;99348.19;20161269;29;20062;-91
2023/03/08 08:15:59;;;;;;;1.05;0.70;;;;;;;16.99;41.43;99340.81;20161175;29;20077;-91
2023/03/08 08:26:05;;;;;;;1.20;0.80;;;;;;;16.99;41.46;99346.19;20163060;29;20053;-93
2023/03/08 08:36:10;;;;;;;1.10;0.65;;;;;;;16.99;41.56;99327.38;20155275;29;20161;-89
2023/03/08 08:46:12;;;;;;;1.17;0.80;;;;;;;17.00;41.74;99321.81;20181659;29;20128;-90
2023/03/08 08:56:18;;;;;;;1.00;0.90;;;;;;;17.00;41.62;99316.44;20153914;29;20071;-91
2023/03/08 09:06:29;;;;;;;0.87;0.77;;;;;;;17.00;41.81;99303.00;20143549;29;20059;-91
2023/03/08 09:16:32;;;;;;;0.98;0.80;;;;;;;17.00;41.76;99296.78;20143708;29;20355;-89
2023/03/08 09:26:34;;;;;;;1.05;0.80;;;;;;;17.00;41.63;99284.19;20139639;29;20129;-92
2023/03/08 09:36:38;;;;;;;1.00;0.80;;;;;;;17.00;41.85;99277.97;20158284;29;20072;-89
2023/03/08 09:46:45;;;;;;;1.10;0.90;;;;;;;17.00;41.85;99268.03;20196345;29;20052;-91
2023/03/08 09:56:50;;;;;;;2.25;1.25;;;;;;;17.00;41.74;99267.22;20162267;29;20049;-91
2023/03/08 10:07:14;;;;;;;1.38;1.23;;;;;;;16.88;41.73;99246.03;20158010;29;20059;-88
2023/03/08 10:17:22;;;;;;;1.67;1.45;;;;;;;17.00;41.86;99257.28;20130738;29;20052;-89
2023/03/08 10:27:26;;;;;;;1.50;1.30;;;;;;;16.86;41.97;99223.88;20143164;29;20111;-91
2023/03/08 10:37:33;;;;;;;1.55;1.35;;;;;;;17.01;42.15;99231.25;20135007;29;20060;-88
2023/03/08 10:47:35;;;;;;;2.20;1.60;;;;;;;17.01;42.19;99232.09;20164229;29;20590;-90
2023/03/08 10:57:38;;;;;;;1.95;1.50;;;;;;;17.01;42.27;99218.63;20165983;29;20061;-90
2023/03/08 11:07:49;;;;;;;2.47;1.70;;;;;;;17.01;42.45;99205.19;20179427;29;20060;-88
2023/03/08 11:18:00;;;;;;;2.63;2.08;;;;;;;17.02;42.36;99200.69;20170091;29;20534;-88
2023/03/08 11:28:14;;;;;;;2.65;1.73;;;;;;;17.03;42.32;99199.66;20158398;29;20060;-89
2023/03/08 11:38:29;;;;;;;1.88;1.70;;;;;;;17.03;42.35;99192.47;20186631;29;20083;-93
2023/03/08 11:48:37;;;;;;;1.50;1.40;;;;;;;17.03;42.43;99175.47;20166783;29;20526;-91
2023/03/08 11:58:51;;;;;;;2.15;1.60;;;;;;;16.91;42.59;99159.69;20132180;29;20422;-90
2023/03/08 12:09:15;;;;;;;1.70;1.60;;;;;;;17.03;42.46;99173.63;20146266;29;20060;-92
2023/03/08 12:19:24;;;;;;;1.45;1.25;;;;;;;17.02;42.47;99182.72;20148738;29;20798;-91
2023/03/08 12:29:40;;;;;;;1.38;1.27;;;;;;;17.03;42.46;99175.47;20138953;29;20048;-91
2023/03/08 12:39:41;;;;;;;;;;;;;;;17.03;42.60;99170.09;20150486;29;20061;-83
2023/03/08 12:49:45;;;;;;;1.73;1.50;;;;;;;16.54;42.64;99075.13;20157272;29;19931;-94
2023/03/08 12:59:55;;;;;;;1.53;1.23;;;;;;;17.02;42.46;99161.22;20166623;29;20060;-90
2023/03/08 13:10:03;;;;;;;1.23;1.10;;;;;;;17.03;42.65;99143.22;20162382;29;20059;-93
2023/03/08 13:20:13;;;;;;;2.00;1.38;;;;;;;17.03;42.54;99143.22;20162583;29;20108;-93
2023/03/08 13:30:23;;;;;;;1.58;1.20;;;;;;;17.02;42.67;99147.75;20193120;29;20057;-92
2023/03/08 13:40:27;;;;;;;1.90;1.20;;;;;;;16.82;42.39;99132.00;20170891;29;20501;-94
2023/03/08 13:50:35;;;;;;;1.63;1.33;;;;;;;17.01;42.65;99150.63;20166274;29;20438;-93
2023/03/08 14:00:36;;;;;;;1.95;1.63;;;;;;;16.79;42.51;99104.59;20161837;29;20072;-89
2023/03/08 14:10:40;;;;;;;2.25;1.20;;;;;;;17.00;42.43;99128.25;20134407;29;20088;-90
2023/03/08 14:20:42;;;;;;;1.80;1.37;;;;;;;16.99;42.52;99126.56;20138385;29;20132;-89
2023/03/08 14:30:47;;;;;;;2.30;1.58;;;;;;;16.99;42.48;99126.56;20160523;29;20057;-90
2023/03/08 14:40:50;;;;;;;3.00;1.25;;;;;;;16.86;42.26;99100.25;20175988;29;20069;-89
2023/03/08 14:50:53;;;;;;;1.67;1.15;;;;;;;16.88;42.24;99113.50;20159619;29;20049;-90
2023/03/08 15:00:57;;;;;;;1.55;1.08;;;;;;;16.86;42.03;99070.69;20106370;29;20061;-90
2023/03/08 15:10:59;;;;;;;1.70;1.35;;;;;;;16.98;42.18;99081.06;20120617;29;20057;-90
2023/03/08 15:21:00;;;;;;;1.33;1.02;;;;;;;16.99;41.93;99074.69;20134700;29;20105;-93
2023/03/08 15:31:02;;;;;;;1.55;1.40;;;;;;;16.96;42.08;99057.84;20163473;29;20069;-89
2023/03/08 15:41:04;;;;;;;1.10;0.77;;;;;;;16.96;41.87;99055.16;20157196;29;20087;-89
2023/03/08 16:01:44;;;;;;;1.02;0.80;;;;;;;16.95;41.66;99066.94;19932946;29;20057;-95
2023/03/08 16:11:45;;;;;;;1.75;1.17;;;;;;;16.94;41.66;99073.31;19946365;29;20046;-95
2023/03/08 16:21:49;;;;;;;0.98;0.85;;;;;;;16.95;41.86;99082.22;19924053;29;20094;-94
2023/03/08 16:31:51;;;;;;;1.48;0.90;;;;;;;16.93;41.62;99082.41;19915137;29;20178;-93
2023/03/08 16:41:53;;;;;;;1.77;0.80;;;;;;;16.93;41.69;99078.84;19896288;29;20050;-95
2023/03/08 16:51:55;;;;;;;0.90;0.80;;;;;;;16.92;41.40;99075.34;19855123;29;20145;-92
2023/03/08 17:01:56;;;;;;;1.40;0.93;;;;;;;16.89;41.60;99078.38;19831773;29;20124;-93
2023/03/08 17:11:58;;;;;;;1.00;0.90;;;;;;;16.90;41.45;99074.69;19847045;29;20059;-91
2023/03/08 17:22:00;;;;;;;1.42;1.00;;;;;;;16.90;41.55;99060.41;19840742;29;20401;-91
2023/03/08 17:32:01;;;;;;;1.15;1.00;;;;;;;16.89;41.64;99056.88;19835336;29;20070;-94
2023/03/08 17:42:03;;;;;;;1.30;1.00;;;;;;;16.90;41.46;99031.69;19865214;29;20051;-94
2023/03/08 17:52:04;;;;;;;1.95;1.20;;;;;;;16.89;41.81;99040.75;19881606;29;20146;-90
2023/03/08 18:02:07;;;;;;;2.88;1.33;;;;;;;16.88;41.73;99049.84;19849723;29;20070;-93
2023/03/08 18:12:10;;;;;;;3.67;1.45;;;;;;;16.77;41.90;99043.00;19852702;29;20524;-93
2023/03/08 18:22:12;;;;;;;3.15;1.38;;;;;;;16.88;41.83;99057.91;19867725;29;20058;-92
2023/03/08 18:32:13;;;;;;;2.00;1.40;;;;;;;16.87;41.95;99050.84;19863356;29;20070;-89
2023/03/08 18:42:15;;;;;;;3.00;1.83;;;;;;;16.87;41.82;99048.16;19877548;29;20072;-89
2023/03/08 18:52:17;;;;;;;2.65;1.80;;;;;;;16.44;41.94;98988.56;19869778;29;20119;-92
2023/03/08 19:02:20;;;;;;;2.70;1.70;;;;;;;16.48;41.95;98992.56;19925588;29;20111;-92
2023/03/08 19:12:21;;;;;;;2.55;1.85;;;;;;;16.86;41.84;99051.88;19945462;29;20081;-90
2023/03/08 19:22:23;;;;;;;2.35;1.73;;;;;;;16.64;41.89;99022.03;19928076;29;20123;-91
2023/03/08 19:32:25;;;;;;;3.60;2.13;;;;;;;16.84;41.96;99037.75;19934336;29;20086;-89
2023/03/08 19:42:26;;;;;;;2.35;1.98;;;;;;;16.85;41.95;99050.19;19953385;29;20054;-91
2023/03/08 19:52:28;;;;;;;2.58;1.95;;;;;;;16.84;42.06;99035.06;19958283;29;20088;-90
2023/03/08 20:02:29;;;;;;;2.72;1.67;;;;;;;16.64;42.17;98986.28;19944087;29;20070;-89
2023/03/08 20:12:31;;;;;;;2.58;2.17;;;;;;;16.84;42.04;99016.25;19953977;29;20063;-89
2023/03/08 20:22:32;;;;;;;2.40;1.90;;;;;;;16.60;42.14;98958.94;19959814;29;20062;-91
2023/03/08 20:32:34;;;;;;;3.08;2.30;;;;;;;16.84;42.14;99013.56;19940769;29;20135;-90
2023/03/08 20:42:35;;;;;;;2.75;2.13;;;;;;;16.83;42.05;99019.97;19953970;29;20066;-90
2023/03/08 20:52:37;;;;;;;2.25;1.85;;;;;;;16.85;42.08;99033.22;19953752;29;20066;-91
2023/03/08 21:02:39;;;;;;;2.30;1.88;;;;;;;16.38;41.91;98957.84;19940022;29;20455;-91
2023/03/08 21:12:40;;;;;;;3.63;2.13;;;;;;;16.83;42.06;99036.09;19929311;29;20050;-91
2023/03/08 21:22:42;;;;;;;2.45;2.13;;;;;;;16.82;42.18;99039.78;19892174;29;20069;-90
2023/03/08 21:32:43;;;;;;;2.40;2.20;;;;;;;16.81;42.13;99044.31;19892128;29;20116;-91
2023/03/08 21:42:45;;;;;;;3.15;2.13;;;;;;;16.72;41.98;99039.13;19862809;29;20090;-91
2023/03/08 21:52:46;;;;;;;2.42;2.22;;;;;;;16.72;42.10;99023.00;19861789;29;20067;-90
2023/03/08 22:02:49;;;;;;;2.35;1.98;;;;;;;16.60;42.21;98987.66;19861957;29;20054;-92
2023/03/08 22:12:54;;;;;;;;;;;;;;;16.80;42.18;99017.63;19902750;29;20058;-91
2023/03/08 22:22:56;;;;;;;2.63;2.03;;;;;;;16.77;42.11;99009.88;19935089;29;20016;-91
2023/03/08 22:32:57;;;;;;;2.25;1.85;;;;;;;16.79;41.94;98997.13;19935599;29;20064;-91
2023/03/08 22:42:59;;;;;;;1.90;1.50;;;;;;;16.78;42.09;98984.69;19934293;29;20807;-91
2023/03/08 22:53:00;;;;;;;2.05;1.70;;;;;;;16.78;42.01;98977.47;19934886;29;20058;-90
2023/03/08 23:03:02;;;;;;;2.42;1.70;;;;;;;16.77;42.00;98973.13;19948014;29;20078;-91
2023/03/08 23:13:03;;;;;;;1.52;1.40;;;;;;;16.77;41.98;98969.59;19931039;29;20074;-92
2023/03/08 23:23:05;;;;;;;1.58;1.38;;;;;;;16.65;41.91;98959.22;19871989;29;20062;-91
2023/03/08 23:33:07;;;;;;;1.85;1.38;;;;;;;16.77;41.98;98969.59;19871900;29;20112;-90
2023/03/08 23:43:09;;;;;;;2.47;1.30;;;;;;;16.65;41.90;98961.91;19871356;29;20066;-88
2023/03/08 23:53:10;;;;;;;2.05;1.50;;;;;;;16.77;41.75;98993.75;19883996;29;20146;-91
